createdAt,value
2022-09-28T00:01:55.940Z,17.09
2022-09-28T00:04:39.677Z,16.91
2022-09-28T00:07:23.510Z,16.74
2022-09-28T00:10:08.285Z,17.01
2022-09-28T00:12:52.869Z,17.06
2022-09-28T00:15:36.856Z,16.52
2022-09-28T00:18:22.503Z,16.87
2022-09-28T00:21:08.835Z,16.29
2022-09-28T00:24:11.919Z,16.20
2022-09-28T00:26:58.023Z,16.26
2022-09-28T00:29:41.957Z,16.73
2022-09-28T00:32:26.783Z,16.61
2022-09-28T00:35:12.373Z,16.78
2022-09-28T00:37:56.233Z,16.57
2022-09-28T00:40:40.152Z,16.66
2022-09-28T00:43:25.390Z,16.80
2022-09-28T00:46:16.709Z,16.82
2022-09-28T00:49:04.491Z,16.42
2022-09-28T00:51:50.375Z,16.54
2022-09-28T00:54:35.336Z,16.59
2022-09-28T00:57:19.112Z,16.51
2022-09-28T01:00:04.538Z,16.56
2022-09-28T01:02:49.166Z,16.26
2022-09-28T01:05:35.102Z,16.20
2022-09-28T01:08:23.314Z,16.01
2022-09-28T01:11:07.286Z,16.07
2022-09-28T01:13:53.560Z,15.75
2022-09-28T01:16:43.006Z,15.87
2022-09-28T01:20:08.668Z,15.48
2022-09-28T01:23:19.418Z,15.35
2022-09-28T01:26:43.593Z,15.64
2022-09-28T01:29:37.314Z,15.59
2022-09-28T01:32:33.764Z,15.52
2022-09-28T01:35:22.402Z,15.42
2022-09-28T01:38:09.360Z,15.41
2022-09-28T01:40:55.094Z,15.36
2022-09-28T01:43:43.489Z,15.37
2022-09-28T01:46:32.175Z,15.27
2022-09-28T01:49:20.951Z,15.32
2022-09-28T01:52:12.419Z,14.97
2022-09-28T01:55:01.353Z,15.03
2022-09-28T01:57:51.919Z,15.20
2022-09-28T02:00:41.837Z,15.08
2022-09-28T02:03:36.463Z,15.14
2022-09-28T02:06:27.893Z,15.14
2022-09-28T02:09:15.307Z,15.18
2022-09-28T02:12:07.332Z,15.00
2022-09-28T02:14:55.788Z,15.01
2022-09-28T02:17:41.922Z,15.27
2022-09-28T02:20:31.848Z,15.55
2022-09-28T02:23:18.261Z,14.93
2022-09-28T02:26:05.565Z,15.31
2022-09-28T02:28:49.618Z,15.33
2022-09-28T02:31:33.705Z,14.93
2022-09-28T02:34:19.457Z,15.11
2022-09-28T02:37:04.173Z,14.99
2022-09-28T02:39:47.936Z,15.25
2022-09-28T02:42:41.398Z,15.21
2022-09-28T02:45:39.444Z,15.24
2022-09-28T02:48:43.915Z,14.99
2022-09-28T02:51:43.476Z,14.97
2022-09-28T02:54:49.627Z,14.72
2022-09-28T02:57:44.979Z,14.69
2022-09-28T03:00:32.041Z,14.90
2022-09-28T03:03:22.150Z,15.14
2022-09-28T03:06:12.683Z,15.06
2022-09-28T03:09:12.196Z,15.30
2022-09-28T03:12:00.117Z,15.00
2022-09-28T03:14:44.029Z,14.52
2022-09-28T03:17:28.234Z,14.77
2022-09-28T03:20:12.736Z,14.78
2022-09-28T03:23:20.153Z,15.08
2022-09-28T03:26:02.660Z,14.75
2022-09-28T03:28:47.299Z,14.71
2022-09-28T03:31:38.113Z,14.50
2022-09-28T03:34:22.049Z,14.42
2022-09-28T03:37:05.841Z,14.96
2022-09-28T03:39:50.371Z,15.04
2022-09-28T03:42:37.924Z,14.75
2022-09-28T03:45:22.432Z,14.93
2022-09-28T03:48:08.523Z,15.00
2022-09-28T03:50:55.212Z,14.95
2022-09-28T03:53:41.075Z,14.42
2022-09-28T03:56:24.990Z,14.42
2022-09-28T03:59:10.345Z,14.46
2022-09-28T04:01:54.356Z,14.53
2022-09-28T04:04:38.266Z,14.57
2022-09-28T04:07:22.181Z,14.99
2022-09-28T04:10:06.487Z,15.12
2022-09-28T04:12:51.020Z,15.15
2022-09-28T04:15:38.005Z,15.13
2022-09-28T04:18:22.610Z,15.11
2022-09-28T04:21:25.410Z,15.16
2022-09-28T04:24:19.038Z,15.23
2022-09-28T04:27:16.786Z,15.13
2022-09-28T04:30:00.729Z,14.70
2022-09-28T04:32:49.120Z,15.04
2022-09-28T04:35:33.822Z,14.98
2022-09-28T04:38:30.819Z,15.21
2022-09-28T04:41:23.534Z,15.29
2022-09-28T04:44:07.698Z,15.50
2022-09-28T04:46:51.640Z,15.60
2022-09-28T04:49:48.684Z,15.85
2022-09-28T04:52:38.334Z,16.01
2022-09-28T04:55:22.124Z,16.14
2022-09-28T04:58:06.174Z,16.08
2022-09-28T05:00:51.358Z,15.76
2022-09-28T05:03:54.173Z,16.28
2022-09-28T05:06:54.833Z,16.21
2022-09-28T05:09:38.793Z,16.13
2022-09-28T05:12:22.858Z,16.34
2022-09-28T05:15:07.389Z,16.52
2022-09-28T05:17:53.791Z,16.80
2022-09-28T05:20:45.339Z,17.04
2022-09-28T05:23:30.656Z,17.11
2022-09-28T05:26:14.858Z,17.18
2022-09-28T05:28:58.832Z,17.33
2022-09-28T05:32:02.412Z,16.76
2022-09-28T05:35:21.602Z,17.29
2022-09-28T05:38:06.506Z,17.47
2022-09-28T05:40:51.913Z,17.78
2022-09-28T05:43:36.391Z,17.69
2022-09-28T05:46:22.629Z,17.68
2022-09-28T05:49:07.352Z,17.61
2022-09-28T05:51:51.090Z,17.75
2022-09-28T05:54:34.844Z,17.83
2022-09-28T05:57:20.140Z,17.86
2022-09-28T06:00:04.420Z,17.77
2022-09-28T06:02:58.395Z,17.99
2022-09-28T06:05:42.443Z,17.78
2022-09-28T06:08:26.318Z,17.84
2022-09-28T06:11:27.054Z,18.16
2022-09-28T06:14:13.888Z,17.87
2022-09-28T06:16:58.568Z,18.21
2022-09-28T06:19:42.398Z,18.33
2022-09-28T06:22:43.351Z,18.35
2022-09-28T06:25:27.729Z,18.43
2022-09-28T06:28:13.498Z,18.69
2022-09-28T06:31:00.933Z,18.05
2022-09-28T06:33:45.570Z,18.57
2022-09-28T06:36:31.078Z,18.95
2022-09-28T06:39:14.817Z,18.61
2022-09-28T06:41:58.894Z,18.95
2022-09-28T06:44:52.135Z,18.86
2022-09-28T06:47:54.322Z,18.77
2022-09-28T06:50:44.307Z,19.19
2022-09-28T06:53:48.376Z,19.35
2022-09-28T06:56:47.980Z,19.35
2022-09-28T06:59:32.560Z,19.46
2022-09-28T07:02:17.855Z,19.66
2022-09-28T07:05:27.537Z,19.84
2022-09-28T07:08:36.509Z,19.89
2022-09-28T07:11:40.630Z,20.03
2022-09-28T07:14:57.726Z,20.21
2022-09-28T07:17:59.353Z,20.22
2022-09-28T07:20:54.183Z,20.45
2022-09-28T07:23:50.424Z,20.64
2022-09-28T07:26:41.714Z,20.77
2022-09-28T07:29:45.681Z,20.70
2022-09-28T07:32:49.052Z,20.73
2022-09-28T07:36:06.455Z,20.75
2022-09-28T07:38:51.490Z,20.85
2022-09-28T07:41:35.070Z,20.84
2022-09-28T07:44:22.303Z,20.92
2022-09-28T07:47:09.849Z,21.10
2022-09-28T07:50:29.079Z,21.33
2022-09-28T07:53:19.317Z,21.34
2022-09-28T07:56:23.743Z,21.39
2022-09-28T07:59:26.450Z,21.42
2022-09-28T08:02:28.887Z,21.49
2022-09-28T08:05:13.523Z,21.55
2022-09-28T08:07:58.792Z,21.84
2022-09-28T08:10:47.721Z,21.70
2022-09-28T08:14:02.009Z,22.06
2022-09-28T08:17:05.653Z,21.80
2022-09-28T08:20:15.364Z,21.99
2022-09-28T08:23:04.609Z,21.41
2022-09-28T08:25:52.628Z,22.31
2022-09-28T08:28:37.437Z,22.47
2022-09-28T08:31:39.594Z,22.50
2022-09-28T08:34:29.150Z,22.50
2022-09-28T08:37:31.559Z,22.41
2022-09-28T08:40:48.387Z,22.59
2022-09-28T08:44:09.511Z,22.57
2022-09-28T08:47:39.559Z,22.46
2022-09-28T08:50:51.169Z,22.63
2022-09-28T08:53:47.280Z,22.54
2022-09-28T08:56:44.387Z,22.64
2022-09-28T08:59:43.441Z,23.00
2022-09-28T09:02:36.231Z,23.09
2022-09-28T09:05:56.831Z,23.29
2022-09-28T09:09:11.254Z,23.04
2022-09-28T09:12:09.363Z,23.14
2022-09-28T09:15:15.324Z,22.98
2022-09-28T09:18:10.919Z,23.08
2022-09-28T09:21:13.489Z,23.29
2022-09-28T09:24:05.214Z,23.55
2022-09-28T09:26:56.123Z,23.47
2022-09-28T09:30:06.289Z,23.53
2022-09-28T09:33:09.673Z,23.46
2022-09-28T09:36:28.181Z,23.68
2022-09-28T09:39:48.350Z,23.92
2022-09-28T09:43:04.743Z,23.70
2022-09-28T09:46:13.988Z,24.04
2022-09-28T09:49:37.788Z,24.24
2022-09-28T09:52:25.527Z,24.09
2022-09-28T09:55:17.698Z,24.13
2022-09-28T09:58:29.744Z,24.04
2022-09-28T10:01:31.498Z,24.27
2022-09-28T10:04:40.847Z,24.50
2022-09-28T10:07:43.655Z,24.37
2022-09-28T10:10:31.091Z,24.55
2022-09-28T10:13:24.259Z,24.48
2022-09-28T10:16:12.042Z,24.49
2022-09-28T10:19:03.989Z,24.38
2022-09-28T10:22:08.744Z,24.59
2022-09-28T10:24:57.660Z,24.56
2022-09-28T10:27:45.890Z,24.30
2022-09-28T10:30:30.728Z,24.81
2022-09-28T10:33:30.273Z,24.96
2022-09-28T10:36:14.846Z,24.63
2022-09-28T10:39:00.025Z,24.83
2022-09-28T10:41:51.091Z,24.88
2022-09-28T10:44:51.496Z,25.12
2022-09-28T10:47:56.098Z,24.97
2022-09-28T10:50:41.998Z,24.94
2022-09-28T10:53:29.553Z,25.11
2022-09-28T10:56:28.184Z,25.09
2022-09-28T10:59:37.699Z,24.90
2022-09-28T11:02:42.293Z,25.32
2022-09-28T11:05:38.882Z,24.99
2022-09-28T11:08:28.070Z,25.52
2022-09-28T11:11:16.165Z,25.12
2022-09-28T11:14:05.038Z,24.89
2022-09-28T11:17:20.038Z,25.22
2022-09-28T11:20:30.906Z,25.45
2022-09-28T11:23:23.421Z,25.35
2022-09-28T11:26:18.212Z,25.62
2022-09-28T11:29:04.797Z,25.84
2022-09-28T11:32:03.754Z,25.91
2022-09-28T11:34:59.717Z,25.68
2022-09-28T11:38:04.727Z,26.04
2022-09-28T11:41:28.892Z,26.08
2022-09-28T11:44:38.011Z,25.65
2022-09-28T11:47:43.481Z,25.55
2022-09-28T11:50:36.902Z,25.77
2022-09-28T11:53:26.332Z,25.83
2022-09-28T11:56:26.331Z,25.89
2022-09-28T11:59:17.130Z,25.76
2022-09-28T12:02:17.837Z,25.75
2022-09-28T12:05:22.070Z,25.97
2022-09-28T12:08:14.903Z,25.99
2022-09-28T12:11:26.706Z,26.23
2022-09-28T12:14:39.466Z,26.06
2022-09-28T12:17:28.448Z,25.93
2022-09-28T12:20:19.886Z,26.03
2022-09-28T12:23:09.116Z,26.18
2022-09-28T12:25:59.389Z,26.23
2022-09-28T12:28:49.168Z,26.02
2022-09-28T12:31:39.188Z,26.42
2022-09-28T12:34:24.623Z,26.42
2022-09-28T12:37:24.918Z,26.32
2022-09-28T12:40:29.961Z,26.38
2022-09-28T12:43:42.606Z,26.41
2022-09-28T12:46:39.623Z,26.62
2022-09-28T12:52:52.188Z,26.37
2022-09-28T12:55:52.441Z,26.57
2022-09-28T12:58:59.958Z,26.05
2022-09-28T13:01:59.259Z,26.20
2022-09-28T13:04:58.019Z,26.03
2022-09-28T13:07:50.934Z,26.55
2022-09-28T13:10:42.241Z,26.49
2022-09-28T13:13:39.283Z,26.58
2022-09-28T13:16:31.326Z,26.21
2022-09-28T13:19:23.031Z,25.97
2022-09-28T13:22:23.332Z,26.22
2022-09-28T13:25:14.873Z,26.42
2022-09-28T13:28:02.869Z,26.56
2022-09-28T13:30:47.895Z,26.48
2022-09-28T13:33:36.943Z,26.46
2022-09-28T13:36:47.864Z,26.27
2022-09-28T13:39:52.166Z,26.37
2022-09-28T13:43:03.180Z,26.17
2022-09-28T13:46:00.916Z,26.09
2022-09-28T13:48:49.645Z,26.45
2022-09-28T13:51:47.616Z,26.46
2022-09-28T13:54:50.405Z,26.17
2022-09-28T13:57:42.882Z,26.38
2022-09-28T14:00:31.667Z,26.56
2022-09-28T14:03:28.157Z,26.45
2022-09-28T14:06:24.533Z,26.52
2022-09-28T14:09:25.100Z,26.32
2022-09-28T14:12:48.993Z,26.02
2022-09-28T14:15:46.282Z,26.02
2022-09-28T14:18:33.229Z,26.12
2022-09-28T14:21:50.694Z,25.72
2022-09-28T14:25:00.907Z,26.04
2022-09-28T14:28:02.466Z,26.27
2022-09-28T14:30:50.268Z,26.24
2022-09-28T14:33:38.883Z,26.21
2022-09-28T14:36:47.503Z,26.51
2022-09-28T14:39:51.680Z,26.43
2022-09-28T14:42:35.481Z,24.77
2022-09-28T14:45:33.911Z,24.50
2022-09-28T14:48:22.433Z,24.47
2022-09-28T14:51:37.968Z,24.50
2022-09-28T14:54:23.088Z,24.57
2022-09-28T14:57:16.208Z,24.34
2022-09-28T15:00:01.691Z,24.38
2022-09-28T15:02:52.800Z,25.05
2022-09-28T15:05:44.101Z,24.72
2022-09-28T15:08:38.640Z,24.39
2022-09-28T15:11:25.309Z,24.42
2022-09-28T15:14:10.929Z,24.41
2022-09-28T15:16:55.358Z,24.62
2022-09-28T15:19:50.210Z,23.96
2022-09-28T15:22:35.200Z,23.56
2022-09-28T15:25:21.502Z,23.57
2022-09-28T15:28:19.130Z,23.68
2022-09-28T15:31:04.169Z,23.17
2022-09-28T15:34:05.623Z,23.29
2022-09-28T15:36:51.044Z,23.15
2022-09-28T15:39:35.557Z,23.42
2022-09-28T15:42:19.575Z,22.96
2022-09-28T15:45:24.891Z,23.02
2022-09-28T15:48:32.056Z,23.04
2022-09-28T15:51:15.812Z,23.14
2022-09-28T15:54:04.327Z,22.88
2022-09-28T15:56:57.831Z,23.08
2022-09-28T15:59:43.955Z,22.86
2022-09-28T16:02:28.287Z,22.76
2022-09-28T16:05:35.838Z,22.85
2022-09-28T16:08:25.589Z,22.52
2022-09-28T16:11:16.316Z,22.65
2022-09-28T16:14:06.295Z,22.31
2022-09-28T16:16:52.266Z,22.01
2022-09-28T16:19:39.482Z,22.20
2022-09-28T16:22:28.670Z,21.87
2022-09-28T16:25:19.795Z,21.75
2022-09-28T16:28:06.295Z,21.59
2022-09-28T16:31:01.987Z,21.48
2022-09-28T16:33:52.312Z,21.31
2022-09-28T16:36:47.379Z,21.33
2022-09-28T16:39:31.060Z,21.06
2022-09-28T16:42:15.292Z,20.73
2022-09-28T16:45:04.058Z,21.13
2022-09-28T16:47:53.071Z,20.55
2022-09-28T16:50:37.237Z,20.50
2022-09-28T16:53:38.933Z,20.05
2022-09-28T16:56:23.182Z,20.26
2022-09-28T16:59:13.635Z,20.26
2022-09-28T17:02:00.039Z,20.08
2022-09-28T17:04:47.612Z,20.04
2022-09-28T17:07:31.682Z,19.96
2022-09-28T17:10:24.036Z,20.33
2022-09-28T17:13:07.958Z,20.20
2022-09-28T17:15:51.912Z,19.93
2022-09-28T17:18:39.285Z,20.09
2022-09-28T17:21:23.177Z,20.02
2022-09-28T17:24:07.407Z,20.10
2022-09-28T17:26:53.103Z,19.80
2022-09-28T17:29:36.970Z,19.66
2022-09-28T17:32:21.455Z,19.76
2022-09-28T17:35:24.306Z,20.01
2022-09-28T17:38:11.092Z,19.82
2022-09-28T17:40:54.810Z,19.76
2022-09-28T17:43:38.744Z,19.43
2022-09-28T17:46:28.839Z,19.31
2022-09-28T17:49:13.068Z,19.36
2022-09-28T17:51:58.269Z,19.35
2022-09-28T17:54:42.075Z,19.40
2022-09-28T17:57:25.929Z,19.51
2022-09-28T18:00:13.461Z,19.30
2022-09-28T18:02:58.530Z,18.99
2022-09-28T18:05:43.218Z,19.38
2022-09-28T18:08:28.720Z,19.14
2022-09-28T18:11:13.275Z,19.36
2022-09-28T18:13:57.070Z,19.09
2022-09-28T18:16:40.831Z,18.59
2022-09-28T18:19:28.624Z,18.95
2022-09-28T18:22:15.670Z,19.18
2022-09-28T18:25:00.893Z,19.17
2022-09-28T18:27:44.707Z,19.32
2022-09-28T18:30:29.157Z,19.40
2022-09-28T18:33:14.123Z,19.17
2022-09-28T18:35:58.035Z,18.79
2022-09-28T18:38:41.978Z,19.28
2022-09-28T18:41:27.202Z,19.04
2022-09-28T18:44:11.396Z,19.09
2022-09-28T18:46:55.374Z,18.89
2022-09-28T18:49:40.285Z,19.25
2022-09-28T18:52:26.528Z,18.93
2022-09-28T18:55:11.733Z,19.27
2022-09-28T18:57:58.491Z,18.91
2022-09-28T19:00:43.871Z,19.31
2022-09-28T19:03:27.898Z,19.41
2022-09-28T19:06:13.392Z,19.57
2022-09-28T19:09:00.950Z,19.46
2022-09-28T19:11:44.681Z,19.04
2022-09-28T19:14:29.996Z,19.13
2022-09-28T19:17:13.871Z,19.17
2022-09-28T19:19:57.693Z,19.26
2022-09-28T19:22:41.480Z,18.94
2022-09-28T19:25:25.337Z,19.29
2022-09-28T19:28:09.170Z,19.34
2022-09-28T19:31:04.864Z,19.11
2022-09-28T19:33:48.694Z,19.11
2022-09-28T19:36:32.904Z,19.11
2022-09-28T19:39:17.754Z,19.35
2022-09-28T19:42:01.625Z,18.96
2022-09-28T19:44:46.530Z,19.08
2022-09-28T19:47:31.817Z,18.91
2022-09-28T19:50:15.643Z,18.80
2022-09-28T19:53:01.662Z,18.68
2022-09-28T19:55:52.835Z,18.45
2022-09-28T19:58:37.772Z,18.47
2022-09-28T20:01:21.552Z,18.27
2022-09-28T20:04:06.817Z,18.19
2022-09-28T20:06:52.532Z,18.16
2022-09-28T20:09:36.395Z,18.12
2022-09-28T20:12:20.360Z,18.29
2022-09-28T20:15:05.215Z,18.32
2022-09-28T20:17:49.022Z,18.37
2022-09-28T20:20:34.227Z,18.49
2022-09-28T20:23:18.259Z,18.33
2022-09-28T20:26:02.152Z,18.06
2022-09-28T20:28:45.983Z,18.75
2022-09-28T20:31:29.964Z,18.81
2022-09-28T20:34:14.098Z,18.71
2022-09-28T20:36:59.264Z,18.73
2022-09-28T20:39:45.130Z,18.94
2022-09-28T20:42:31.993Z,19.03
2022-09-28T20:45:16.107Z,19.01
2022-09-28T20:48:04.477Z,18.75
2022-09-28T20:50:48.393Z,18.35
2022-09-28T20:53:34.709Z,18.23
2022-09-28T20:56:21.162Z,18.39
2022-09-28T20:59:05.809Z,18.28
2022-09-28T21:01:49.818Z,18.49
2022-09-28T21:04:33.883Z,18.23
2022-09-28T21:07:17.711Z,18.09
2022-09-28T21:10:02.764Z,18.38
2022-09-28T21:12:50.306Z,18.40
2022-09-28T21:15:35.261Z,18.60
2022-09-28T21:18:20.224Z,18.69
2022-09-28T21:21:06.980Z,18.76
2022-09-28T21:23:54.071Z,18.68
2022-09-28T21:26:39.246Z,18.89
2022-09-28T21:29:22.993Z,18.38
2022-09-28T21:32:06.808Z,18.47
2022-09-28T21:34:50.916Z,18.23
2022-09-28T21:37:34.689Z,17.96
2022-09-28T21:40:20.064Z,17.93
2022-09-28T21:43:05.414Z,18.30
2022-09-28T21:45:51.187Z,17.78
2022-09-28T21:48:34.986Z,18.37
2022-09-28T21:51:18.779Z,18.47
2022-09-28T21:54:02.518Z,17.87
2022-09-28T21:56:46.292Z,18.03
2022-09-28T21:59:31.428Z,18.06
2022-09-28T22:02:15.188Z,18.15
2022-09-28T22:04:59.359Z,18.37
2022-09-28T22:07:43.576Z,18.25
2022-09-28T22:10:27.316Z,18.08
2022-09-28T22:13:11.373Z,18.09
2022-09-28T22:15:57.892Z,18.12
2022-09-28T22:18:42.320Z,17.85
2022-09-28T22:21:28.633Z,17.69
2022-09-28T22:24:12.511Z,17.82
2022-09-28T22:26:56.245Z,18.20
2022-09-28T22:29:40.083Z,18.31
2022-09-28T22:32:26.165Z,18.25
2022-09-28T22:35:10.531Z,18.50
2022-09-28T22:37:54.438Z,18.24
2022-09-28T22:40:38.514Z,18.35
2022-09-28T22:43:23.909Z,18.30
2022-09-28T22:46:10.234Z,18.18
2022-09-28T22:48:57.729Z,18.30
2022-09-28T22:51:41.463Z,18.17
2022-09-28T22:54:25.201Z,18.09
2022-09-28T22:57:09.094Z,18.04
2022-09-28T22:59:52.867Z,18.10
2022-09-28T23:02:36.644Z,18.01
2022-09-28T23:05:21.841Z,17.95
2022-09-28T23:08:06.025Z,17.99
2022-09-28T23:10:50.290Z,18.21
2022-09-28T23:13:35.136Z,18.13
2022-09-28T23:16:19.851Z,18.17
2022-09-28T23:19:03.807Z,18.13
2022-09-28T23:21:49.113Z,17.84
2022-09-28T23:24:32.850Z,18.01
2022-09-28T23:27:16.718Z,18.13
2022-09-28T23:30:00.454Z,18.33
2022-09-28T23:32:44.483Z,18.32
2022-09-28T23:35:28.264Z,18.30
2022-09-28T23:38:14.673Z,18.43
2022-09-28T23:40:58.543Z,18.40
2022-09-28T23:43:42.299Z,18.29
2022-09-28T23:46:26.104Z,18.24
2022-09-28T23:49:09.992Z,18.37
2022-09-28T23:51:53.940Z,18.40
2022-09-28T23:54:38.995Z,18.42
2022-09-28T23:57:22.667Z,18.26
